createdAt,value
2023-05-01T00:00:19.328Z,29.399
2023-05-01T00:05:16.379Z,29.397
2023-05-01T00:10:19.515Z,29.395
2023-05-01T00:15:19.304Z,29.391
2023-05-01T00:20:16.339Z,29.391
2023-05-01T00:25:16.272Z,29.388
2023-05-01T00:30:16.633Z,29.379
2023-05-01T00:35:16.536Z,29.376
2023-05-01T00:40:19.437Z,29.375
2023-05-01T00:45:19.482Z,29.372
2023-05-01T00:50:16.349Z,29.369
2023-05-01T00:55:19.421Z,29.359
2023-05-01T01:00:19.655Z,29.356
2023-05-01T01:05:16.373Z,29.354
2023-05-01T01:10:19.372Z,29.349
2023-05-01T01:15:19.487Z,29.348
2023-05-01T01:20:19.628Z,29.344
2023-05-01T01:25:16.376Z,29.336
2023-05-01T01:30:19.394Z,29.332
2023-05-01T01:35:16.397Z,29.330
2023-05-01T01:40:16.476Z,29.322
2023-05-01T01:45:19.422Z,29.320
2023-05-01T01:50:16.417Z,29.313
2023-05-01T01:55:16.457Z,29.312
2023-05-01T02:00:20.765Z,29.306
2023-05-01T02:05:19.410Z,29.301
2023-05-01T02:10:16.461Z,29.293
2023-05-01T02:15:19.467Z,29.292
2023-05-01T02:20:19.579Z,29.286
2023-05-01T02:25:19.373Z,29.283
2023-05-01T02:30:19.454Z,29.279
2023-05-01T02:35:19.470Z,29.276
2023-05-01T02:40:19.376Z,29.270
2023-05-01T02:45:16.558Z,29.261
2023-05-01T02:50:19.529Z,29.259
2023-05-01T02:55:19.390Z,29.256
2023-05-01T03:00:19.451Z,29.250
2023-05-01T03:05:19.455Z,29.244
2023-05-01T03:10:16.523Z,29.238
2023-05-01T03:15:19.492Z,29.231
2023-05-01T03:20:19.550Z,29.223
2023-05-01T03:25:19.401Z,29.215
2023-05-01T03:30:16.547Z,29.206
2023-05-01T03:35:19.543Z,29.201
2023-05-01T03:40:19.486Z,29.198
2023-05-01T03:45:16.506Z,29.193
2023-05-01T03:50:19.545Z,29.189
2023-05-01T03:55:19.485Z,29.179
2023-05-01T04:00:18.660Z,29.170
2023-05-01T04:05:15.775Z,29.162
2023-05-01T04:10:18.804Z,29.153
2023-05-01T04:15:18.703Z,29.152
2023-05-01T04:20:18.709Z,29.143
2023-05-01T04:25:15.768Z,29.132
2023-05-01T04:30:15.631Z,29.128
2023-05-01T04:35:15.856Z,29.125
2023-05-01T04:40:18.789Z,29.121
2023-05-01T04:45:15.863Z,29.115
2023-05-01T04:50:18.767Z,29.113
2023-05-01T04:55:18.794Z,29.107
2023-05-01T05:00:18.753Z,29.108
2023-05-01T05:05:15.623Z,29.101
2023-05-01T05:10:18.794Z,29.093
2023-05-01T05:15:18.751Z,29.089
2023-05-01T05:20:18.796Z,29.087
2023-05-01T05:25:15.804Z,29.081
2023-05-01T05:30:18.712Z,29.077
2023-05-01T05:35:18.750Z,29.077
2023-05-01T05:40:15.775Z,29.071
2023-05-01T05:45:18.734Z,29.070
2023-05-01T05:50:15.895Z,29.065
2023-05-01T05:55:18.774Z,29.066
2023-05-01T06:00:15.835Z,29.060
2023-05-01T06:05:18.758Z,29.059
2023-05-01T06:10:18.819Z,29.057
2023-05-01T06:15:18.773Z,29.051
2023-05-01T06:20:15.838Z,29.049
2023-05-01T06:25:15.824Z,29.051
2023-05-01T06:30:18.858Z,29.047
2023-05-01T06:35:15.829Z,29.044
2023-05-01T06:40:18.865Z,29.042
2023-05-01T06:45:18.810Z,29.044
2023-05-01T06:50:15.838Z,29.041
2023-05-01T06:55:15.872Z,29.041
2023-05-01T07:00:18.830Z,29.039
2023-05-01T07:05:18.806Z,29.035
2023-05-01T07:10:18.856Z,29.034
2023-05-01T07:15:18.785Z,29.029
2023-05-01T07:20:15.884Z,29.027
2023-05-01T07:25:18.840Z,29.026
2023-05-01T07:30:18.826Z,29.023
2023-05-01T07:35:18.833Z,29.024
2023-05-01T07:40:15.948Z,29.024
2023-05-01T07:45:18.817Z,29.026
2023-05-01T07:50:18.802Z,29.024
2023-05-01T07:55:18.787Z,29.022
2023-05-01T08:00:18.809Z,29.023
2023-05-01T08:05:15.956Z,29.017
2023-05-01T08:10:15.870Z,29.012
2023-05-01T08:15:15.906Z,29.012
2023-05-01T08:20:19.072Z,29.016
2023-05-01T08:25:20.171Z,29.014
2023-05-01T08:30:18.923Z,29.018
2023-05-01T08:35:15.974Z,29.015
2023-05-01T08:40:15.982Z,29.013
2023-05-01T08:45:18.915Z,29.006
2023-05-01T08:50:18.912Z,29.007
2023-05-01T08:55:15.928Z,29.005
2023-05-01T09:00:18.809Z,29.004
2023-05-01T09:05:15.720Z,29.003
2023-05-01T09:10:18.839Z,28.999
2023-05-01T09:15:18.879Z,28.995
2023-05-01T09:20:18.865Z,28.991
2023-05-01T09:25:15.903Z,28.988
2023-05-01T09:30:18.934Z,28.987
2023-05-01T09:35:18.827Z,28.988
2023-05-01T09:40:18.838Z,28.984
2023-05-01T09:45:15.754Z,28.992
2023-05-01T09:50:15.880Z,28.994
2023-05-01T09:55:18.843Z,28.995
2023-05-01T10:00:18.946Z,28.998
2023-05-01T10:05:18.873Z,29.002
2023-05-01T10:10:18.971Z,29.001
2023-05-01T10:15:24.636Z,29.002
2023-05-01T10:20:15.988Z,29.002
2023-05-01T10:25:15.966Z,28.999
2023-05-01T10:30:18.952Z,29.001
2023-05-01T10:35:18.972Z,29.002
2023-05-01T10:40:16.057Z,29.001
2023-05-01T10:45:18.873Z,28.996
2023-05-01T10:50:16.241Z,29.005
2023-05-01T10:55:18.901Z,28.999
2023-05-01T11:00:16.009Z,29.003
2023-05-01T11:05:28.908Z,29.003
2023-05-01T11:10:19.105Z,29.008
2023-05-01T11:15:15.945Z,29.012
2023-05-01T11:20:18.899Z,29.015
2023-05-01T11:25:18.909Z,29.015
2023-05-01T11:30:15.995Z,29.021
2023-05-01T11:35:15.977Z,29.023
2023-05-01T11:40:18.912Z,29.026
2023-05-01T11:45:16.080Z,29.026
2023-05-01T11:50:15.997Z,29.032
2023-05-01T11:55:18.934Z,29.032
2023-05-01T12:00:18.947Z,29.032
2023-05-01T12:05:18.918Z,29.033
2023-05-01T12:10:15.992Z,29.044
2023-05-01T12:15:15.993Z,29.049
2023-05-01T12:20:18.973Z,29.050
2023-05-01T12:25:15.986Z,29.058
2023-05-01T12:30:19.010Z,29.057
2023-05-01T12:35:19.064Z,29.058
2023-05-01T12:40:18.977Z,29.055
2023-05-01T12:45:18.898Z,29.050
2023-05-01T12:50:16.006Z,29.059
2023-05-01T12:55:15.952Z,29.060
2023-05-01T13:00:18.998Z,29.058
2023-05-01T13:05:18.978Z,29.065
2023-05-01T13:10:18.916Z,29.067
2023-05-01T13:15:16.052Z,29.072
2023-05-01T13:20:16.081Z,29.080
2023-05-01T13:25:18.986Z,29.086
2023-05-01T13:30:19.031Z,29.101
2023-05-01T13:35:19.045Z,29.111
2023-05-01T13:40:15.852Z,29.124
2023-05-01T13:45:18.974Z,29.138
2023-05-01T13:50:18.996Z,29.145
2023-05-01T13:55:19.027Z,29.151
2023-05-01T14:00:16.052Z,29.155
2023-05-01T14:05:18.955Z,29.160
2023-05-01T14:10:19.162Z,29.165
2023-05-01T14:15:15.985Z,29.165
2023-05-01T14:20:16.140Z,29.171
2023-05-01T14:25:18.939Z,29.174
2023-05-01T14:30:19.029Z,29.186
2023-05-01T14:35:16.025Z,29.194
2023-05-01T14:40:19.077Z,29.199
2023-05-01T14:45:19.043Z,29.202
2023-05-01T14:50:19.065Z,29.203
2023-05-01T14:55:19.007Z,29.209
2023-05-01T15:00:19.032Z,29.209
2023-05-01T15:05:16.073Z,29.214
2023-05-01T15:10:19.047Z,29.219
2023-05-01T15:15:19.004Z,29.223
2023-05-01T15:20:19.029Z,29.226
2023-05-01T15:25:19.031Z,29.234
2023-05-01T15:30:19.006Z,29.238
2023-05-01T15:35:19.057Z,29.239
2023-05-01T15:40:19.146Z,29.243
2023-05-01T15:45:19.079Z,29.246
2023-05-01T15:50:16.057Z,29.249
2023-05-01T15:55:19.023Z,29.253
2023-05-01T16:00:19.131Z,29.256
2023-05-01T16:05:19.083Z,29.256
2023-05-01T16:10:19.037Z,29.259
2023-05-01T16:15:19.100Z,29.259
2023-05-01T16:20:19.050Z,29.260
2023-05-01T16:25:19.041Z,29.259
2023-05-01T16:30:16.120Z,29.262
2023-05-01T16:35:19.078Z,29.266
2023-05-01T16:40:19.063Z,29.268
2023-05-01T16:45:16.072Z,29.268
2023-05-01T16:50:19.071Z,29.271
2023-05-01T16:55:16.065Z,29.274
2023-05-01T17:00:19.127Z,29.273
2023-05-01T17:05:19.039Z,29.276
2023-05-01T17:10:19.115Z,29.279
2023-05-01T17:15:19.121Z,29.280
2023-05-01T17:20:19.048Z,29.283
2023-05-01T17:25:19.092Z,29.286
2023-05-01T17:30:16.011Z,29.289
2023-05-01T17:35:16.042Z,29.293
2023-05-01T17:40:19.279Z,29.295
2023-05-01T17:45:19.070Z,29.295
2023-05-01T17:50:19.035Z,29.302
2023-05-01T17:55:18.032Z,29.297
2023-05-01T18:00:19.117Z,29.298
2023-05-01T18:05:19.067Z,29.302
2023-05-01T18:10:19.150Z,29.301
2023-05-01T18:15:22.116Z,29.298
2023-05-01T18:20:19.084Z,29.298
2023-05-01T18:25:16.171Z,29.299
2023-05-01T18:30:16.170Z,29.296
2023-05-01T18:35:19.220Z,29.295
2023-05-01T18:40:19.134Z,29.296
2023-05-01T18:45:16.117Z,29.297
2023-05-01T18:50:16.120Z,29.298
2023-05-01T18:55:19.108Z,29.297
2023-05-01T19:00:19.150Z,29.299
2023-05-01T19:05:19.195Z,29.296
2023-05-01T19:10:19.162Z,29.296
2023-05-01T19:15:19.119Z,29.296
2023-05-01T19:20:19.078Z,29.297
2023-05-01T19:25:19.122Z,29.293
2023-05-01T19:30:19.097Z,29.294
2023-05-01T19:35:16.134Z,29.293
2023-05-01T19:40:19.107Z,29.295
2023-05-01T19:45:17.825Z,29.296
2023-05-01T19:50:19.197Z,29.294
2023-05-01T19:55:19.106Z,29.295
2023-05-01T20:00:19.124Z,29.296
2023-05-01T20:05:16.170Z,29.299
2023-05-01T20:10:19.175Z,29.301
2023-05-01T20:15:19.184Z,29.304
2023-05-01T20:20:16.159Z,29.306
2023-05-01T20:25:19.169Z,29.309
2023-05-01T20:30:19.179Z,29.310
2023-05-01T20:35:19.150Z,29.312
2023-05-01T20:40:19.202Z,29.313
2023-05-01T20:45:19.133Z,29.314
2023-05-01T20:50:16.149Z,29.317
2023-05-01T20:55:19.254Z,29.318
2023-05-01T21:00:16.274Z,29.321
2023-05-01T21:05:19.235Z,29.322
2023-05-01T21:10:19.163Z,29.325
2023-05-01T21:15:16.175Z,29.328
2023-05-01T21:20:16.214Z,29.331
2023-05-01T21:25:19.228Z,29.333
2023-05-01T21:30:16.104Z,29.335
2023-05-01T21:35:18.574Z,29.340
2023-05-01T21:40:19.199Z,29.341
2023-05-01T21:45:19.131Z,29.345
2023-05-01T21:50:19.159Z,29.345
2023-05-01T21:55:19.196Z,29.341
2023-05-01T22:00:19.334Z,29.345
2023-05-01T22:05:19.206Z,29.344
2023-05-01T22:10:16.247Z,29.344
2023-05-01T22:15:16.219Z,29.346
2023-05-01T22:20:16.308Z,29.346
2023-05-01T22:25:19.210Z,29.349
2023-05-01T22:30:19.295Z,29.351
2023-05-01T22:35:19.218Z,29.354
2023-05-01T22:40:19.222Z,29.354
2023-05-01T22:45:19.196Z,29.356
2023-05-01T22:50:19.255Z,29.361
2023-05-01T22:55:16.224Z,29.363
2023-05-01T23:00:19.260Z,29.365
2023-05-01T23:05:19.240Z,29.367
2023-05-01T23:10:16.244Z,29.370
2023-05-01T23:15:19.252Z,29.373
2023-05-01T23:20:19.245Z,29.375
2023-05-01T23:25:19.221Z,29.377
2023-05-01T23:30:19.239Z,29.380
2023-05-01T23:35:19.227Z,29.382
2023-05-01T23:40:19.290Z,29.384
2023-05-01T23:45:16.257Z,29.384
2023-05-01T23:50:19.270Z,29.385
2023-05-01T23:55:19.235Z,29.389
